createdAt,value
2023-03-02T00:41:37.990Z,1241.00
2023-03-02T00:44:37.746Z,1238.00
2023-03-02T00:45:37.774Z,1244.00
2023-03-02T00:46:37.833Z,1241.00
2023-03-02T00:47:37.865Z,1240.00
2023-03-02T00:48:37.912Z,1244.00
2023-03-02T00:49:37.982Z,1249.00
2023-03-02T00:50:38.027Z,1231.00
2023-03-02T00:51:38.072Z,1239.00
2023-03-02T00:52:38.123Z,1218.00
2023-03-02T00:53:38.142Z,1221.00
2023-03-02T00:54:38.156Z,1220.00
2023-03-02T00:55:38.188Z,1211.00
2023-03-02T00:56:38.209Z,1228.00
2023-03-02T00:57:38.225Z,1226.00
2023-03-02T00:58:38.254Z,1221.00
2023-03-02T00:59:38.283Z,1217.00
2023-03-02T01:00:38.320Z,1212.00
2023-03-02T01:01:38.356Z,1225.00
2023-03-02T01:02:38.522Z,1222.00
2023-03-02T01:03:38.382Z,1222.00
2023-03-02T01:04:38.411Z,1208.00
2023-03-02T01:05:38.440Z,1210.00
2023-03-02T01:06:38.461Z,1211.00
2023-03-02T01:07:38.510Z,1216.00
2023-03-02T01:08:38.559Z,1216.00
2023-03-02T01:09:39.006Z,1203.00
2023-03-02T01:10:38.605Z,1214.00
2023-03-02T01:11:38.628Z,1205.00
2023-03-02T01:12:38.628Z,1219.00
2023-03-02T01:13:38.662Z,1194.00
2023-03-02T01:14:38.693Z,1186.00
2023-03-02T01:15:38.734Z,1172.00
2023-03-02T01:16:38.851Z,1190.00
2023-03-02T01:17:38.785Z,1196.00
2023-03-02T01:18:38.831Z,1203.00
2023-03-02T01:19:38.828Z,1179.00
2023-03-02T01:20:38.847Z,1192.00
2023-03-02T01:21:38.890Z,1189.00
2023-03-02T01:22:38.922Z,1194.00
2023-03-02T01:23:38.977Z,1193.00
2023-03-02T01:24:38.988Z,1181.00
2023-03-02T01:25:39.065Z,1192.00
2023-03-02T01:26:39.054Z,1186.00
2023-03-02T01:27:39.085Z,1169.00
2023-03-02T01:28:39.146Z,1174.00
2023-03-02T01:29:39.166Z,1178.00
2023-03-02T01:30:39.202Z,1190.00
2023-03-02T01:31:39.335Z,1175.00
2023-03-02T01:32:39.291Z,1169.00
2023-03-02T01:33:39.318Z,1180.00
2023-03-02T01:34:39.351Z,1173.00
2023-03-02T01:35:39.425Z,1168.00
2023-03-02T01:36:39.406Z,1167.00
2023-03-02T01:57:39.863Z,1144.00
2023-03-02T01:58:39.903Z,1126.00
2023-03-02T01:59:39.955Z,1122.00
2023-03-02T02:00:39.998Z,1138.00
2023-03-02T02:01:39.978Z,1118.00
2023-03-02T02:02:39.991Z,1129.00
2023-03-02T02:03:40.068Z,1143.00
2023-03-02T02:04:40.029Z,1145.00
2023-03-02T02:05:40.074Z,1142.00
2023-03-02T02:06:40.066Z,1137.00
2023-03-02T02:07:40.067Z,1127.00
2023-03-02T02:08:40.072Z,1120.00
2023-03-02T02:09:40.055Z,1131.00
2023-03-02T02:10:40.050Z,1102.00
2023-03-02T02:11:40.038Z,1128.00
2023-03-02T02:12:40.046Z,1119.00
2023-03-02T02:13:40.051Z,1121.00
2023-03-02T02:14:40.036Z,1109.00
2023-03-02T02:15:40.046Z,1108.00
2023-03-02T02:16:40.154Z,1120.00
2023-03-02T02:17:40.062Z,1117.00
2023-03-02T02:18:40.083Z,1107.00
2023-03-02T02:19:40.091Z,1118.00
2023-03-02T02:20:40.102Z,1099.00
2023-03-02T02:21:40.116Z,1112.00
2023-03-02T02:22:40.125Z,1108.00
2023-03-02T02:23:40.116Z,1108.00
2023-03-02T02:24:40.144Z,1112.00
2023-03-02T02:25:40.146Z,1114.00
2023-03-02T02:26:40.165Z,1111.00
2023-03-02T02:27:40.163Z,1109.00
2023-03-02T02:28:40.192Z,1114.00
2023-03-02T02:29:40.171Z,1086.00
2023-03-02T02:30:40.155Z,1106.00
2023-03-02T02:31:40.229Z,1093.00
2023-03-02T02:32:40.266Z,1098.00
2023-03-02T02:33:40.204Z,1090.00
2023-03-02T02:34:40.239Z,1095.00
2023-03-02T02:35:40.303Z,1084.00
2023-03-02T02:36:40.262Z,1102.00
2023-03-02T02:37:40.274Z,1086.00
2023-03-02T02:38:40.288Z,1095.00
2023-03-02T02:39:40.299Z,1098.00
2023-03-02T02:40:40.294Z,1094.00
2023-03-02T02:41:40.295Z,1099.00
2023-03-02T02:42:40.295Z,1101.00
2023-03-02T02:43:40.296Z,1088.00
2023-03-02T02:44:40.314Z,1092.00
2023-03-02T02:45:40.353Z,1095.00
2023-03-02T02:46:40.373Z,1090.00
2023-03-02T02:47:40.400Z,1093.00
2023-03-02T02:48:40.411Z,1081.00
2023-03-02T02:49:40.476Z,1081.00
2023-03-02T02:50:40.489Z,1069.00
2023-03-02T02:51:40.517Z,1064.00
2023-03-02T02:52:40.571Z,1085.00
2023-03-02T02:53:40.578Z,1079.00
2023-03-02T02:54:40.624Z,1081.00
2023-03-02T02:55:40.660Z,1086.00
2023-03-02T02:56:40.685Z,1078.00
2023-03-02T02:57:40.711Z,1073.00
2023-03-02T02:58:40.750Z,1074.00
2023-03-02T02:59:40.794Z,1076.00
2023-03-02T03:00:40.790Z,1074.00
2023-03-02T03:01:40.865Z,1063.00
2023-03-02T03:02:40.833Z,1071.00
2023-03-02T03:03:40.868Z,1076.00
2023-03-02T03:04:40.950Z,1067.00
2023-03-02T03:05:40.941Z,1049.00
2023-03-02T03:06:40.978Z,1043.00
2023-03-02T03:07:41.017Z,1065.00
2023-03-02T03:08:41.052Z,1064.00
2023-03-02T03:09:41.216Z,1063.00
2023-03-02T03:10:41.093Z,1049.00
2023-03-02T03:11:41.102Z,1061.00
2023-03-02T03:12:41.118Z,1052.00
2023-03-02T03:13:41.556Z,1057.00
2023-03-02T03:14:41.135Z,1057.00
2023-03-02T03:15:41.156Z,1055.00
2023-03-02T03:16:41.196Z,1052.00
2023-03-02T03:17:41.181Z,1045.00
2023-03-02T03:18:41.187Z,1050.00
2023-03-02T03:19:41.194Z,1042.00
2023-03-02T03:20:41.206Z,1046.00
2023-03-02T03:22:41.230Z,1046.00
2023-03-02T03:23:41.246Z,1042.00
2023-03-02T03:24:41.269Z,1040.00
2023-03-02T03:25:41.899Z,1036.00
2023-03-02T03:26:41.273Z,1020.00
2023-03-02T03:27:41.273Z,1037.00
2023-03-02T03:28:41.265Z,1029.00
2023-03-02T03:29:41.292Z,1031.00
2023-03-02T03:30:41.318Z,1046.00
2023-03-02T03:31:41.288Z,1039.00
2023-03-02T03:32:41.283Z,1041.00
2023-03-02T03:33:41.281Z,1032.00
2023-03-02T03:34:41.288Z,1033.00
2023-03-02T03:35:41.316Z,1032.00
2023-03-02T03:36:41.320Z,1024.00
2023-03-02T03:37:41.333Z,1034.00
2023-03-02T03:38:41.339Z,1020.00
2023-03-02T03:39:41.352Z,1027.00
2023-03-02T03:40:41.359Z,1012.00
2023-03-02T03:41:41.429Z,1021.00
2023-03-02T03:42:41.365Z,1028.00
2023-03-02T03:43:41.371Z,1018.00
2023-03-02T03:44:41.386Z,1023.00
2023-03-02T03:45:41.392Z,1004.00
2023-03-02T03:46:41.407Z,1022.00
2023-03-02T03:47:41.432Z,1013.00
2023-03-02T03:48:41.456Z,1003.00
2023-03-02T03:49:41.483Z,1018.00
2023-03-02T03:50:41.455Z,1016.00
2023-03-02T03:51:41.472Z,1019.00
2023-03-02T03:52:41.474Z,1006.00
2023-03-02T03:53:41.451Z,1011.00
2023-03-02T03:54:41.458Z,999.00
2023-03-02T03:55:41.459Z,1014.00
2023-03-02T03:56:41.455Z,1017.00
2023-03-02T03:57:41.460Z,1002.00
2023-03-02T03:58:41.519Z,996.00
2023-03-02T03:59:41.463Z,991.00
2023-03-02T04:00:41.491Z,1003.00
2023-03-02T04:01:41.562Z,995.00
2023-03-02T04:02:41.628Z,1003.00
2023-03-02T04:03:41.547Z,988.00
2023-03-02T04:04:41.544Z,1003.00
2023-03-02T04:05:41.550Z,1008.00
2023-03-02T04:06:41.567Z,984.00
2023-03-02T04:07:41.566Z,995.00
2023-03-02T04:08:41.579Z,992.00
2023-03-02T04:09:41.582Z,994.00
2023-03-02T04:10:41.577Z,1000.00
2023-03-02T04:11:41.566Z,987.00
2023-03-02T04:12:41.580Z,996.00
2023-03-02T04:13:41.590Z,989.00
2023-03-02T04:14:41.588Z,989.00
2023-03-02T04:15:41.617Z,988.00
2023-03-02T04:16:41.629Z,985.00
2023-03-02T04:17:41.660Z,979.00
2023-03-02T04:18:41.724Z,980.00
2023-03-02T04:19:41.696Z,979.00
2023-03-02T04:20:41.745Z,987.00
2023-03-02T04:21:41.760Z,968.00
2023-03-02T04:22:41.863Z,984.00
2023-03-02T04:23:41.798Z,983.00
2023-03-02T04:24:41.847Z,971.00
2023-03-02T04:25:41.872Z,981.00
2023-03-02T04:26:41.902Z,965.00
2023-03-02T04:27:41.918Z,977.00
2023-03-02T04:28:41.929Z,975.00
2023-03-02T04:29:41.946Z,972.00
2023-03-02T04:30:41.948Z,979.00
2023-03-02T04:31:41.970Z,972.00
2023-03-02T04:32:41.987Z,975.00
2023-03-02T04:33:42.058Z,976.00
2023-03-02T04:34:42.090Z,972.00
2023-03-02T04:35:42.171Z,974.00
2023-03-02T04:36:42.175Z,969.00
2023-03-02T04:37:42.229Z,976.00
2023-03-02T04:38:42.263Z,960.00
2023-03-02T04:39:42.325Z,963.00
2023-03-02T04:40:42.374Z,956.00
2023-03-02T04:41:42.404Z,964.00
2023-03-02T04:42:42.425Z,966.00
2023-03-02T04:43:42.476Z,964.00
2023-03-02T04:44:42.506Z,962.00
2023-03-02T04:45:42.546Z,964.00
2023-03-02T04:46:44.607Z,960.00
2023-03-02T04:47:42.589Z,965.00
2023-03-02T04:48:42.638Z,950.00
2023-03-02T04:49:42.661Z,966.00
2023-03-02T04:50:42.693Z,945.00
2023-03-02T04:51:42.707Z,961.00
2023-03-02T04:52:42.747Z,959.00
2023-03-02T04:53:42.765Z,953.00
2023-03-02T04:54:42.786Z,951.00
2023-03-02T04:55:42.814Z,950.00
2023-03-02T04:56:42.828Z,955.00
2023-03-02T04:57:42.851Z,939.00
2023-03-02T04:58:42.898Z,934.00
2023-03-02T04:59:42.909Z,952.00
2023-03-02T05:00:42.909Z,941.00
2023-03-02T05:01:42.926Z,933.00
2023-03-02T05:02:43.014Z,937.00
2023-03-02T05:03:42.967Z,937.00
2023-03-02T05:04:43.047Z,931.00
2023-03-02T05:05:42.989Z,942.00
2023-03-02T05:06:42.993Z,926.00
2023-03-02T05:07:42.986Z,924.00
2023-03-02T05:08:43.008Z,931.00
2023-03-02T05:09:43.023Z,937.00
2023-03-02T05:10:43.039Z,932.00
2023-03-02T05:11:43.071Z,932.00
2023-03-02T05:12:43.105Z,928.00
2023-03-02T05:13:43.131Z,936.00
2023-03-02T05:14:45.660Z,932.00
2023-03-02T05:15:43.453Z,942.00
2023-03-02T05:16:43.366Z,928.00
2023-03-02T05:17:43.293Z,932.00
2023-03-02T05:18:43.305Z,930.00
2023-03-02T05:19:43.330Z,909.00
2023-03-02T05:20:43.325Z,917.00
2023-03-02T05:21:43.324Z,924.00
2023-03-02T05:22:43.347Z,932.00
2023-03-02T05:23:43.373Z,931.00
2023-03-02T05:24:43.382Z,921.00
2023-03-02T05:25:43.480Z,897.00
2023-03-02T05:26:43.418Z,908.00
2023-03-02T05:27:43.430Z,920.00
2023-03-02T05:28:43.420Z,911.00
2023-03-02T05:29:43.434Z,917.00
2023-03-02T05:30:43.447Z,901.00
2023-03-02T05:31:43.521Z,915.00
2023-03-02T05:32:43.462Z,928.00
2023-03-02T05:33:43.495Z,909.00
2023-03-02T05:34:43.549Z,922.00
2023-03-02T05:35:43.631Z,903.00
2023-03-02T05:36:43.584Z,906.00
2023-03-02T05:37:43.586Z,905.00
2023-03-02T05:38:43.617Z,922.00
2023-03-02T05:39:43.636Z,895.00
2023-03-02T05:40:43.664Z,887.00
2023-03-02T05:41:43.677Z,919.00
2023-03-02T05:42:43.679Z,922.00
2023-03-02T05:43:43.697Z,901.00
2023-03-02T05:44:43.726Z,911.00
2023-03-02T05:45:43.751Z,917.00
2023-03-02T05:46:43.814Z,912.00
2023-03-02T05:47:43.801Z,907.00
2023-03-02T05:48:43.818Z,913.00
2023-03-02T05:49:43.834Z,916.00
2023-03-02T05:50:43.859Z,921.00
2023-03-02T05:51:43.901Z,912.00
2023-03-02T05:52:43.940Z,911.00
2023-03-02T05:53:43.965Z,897.00
2023-03-02T05:54:43.988Z,903.00
2023-03-02T05:55:44.005Z,910.00
2023-03-02T05:56:44.004Z,901.00
2023-03-02T05:57:44.027Z,893.00
2023-03-02T05:58:44.066Z,871.00
2023-03-02T05:59:44.055Z,892.00
2023-03-02T06:00:44.065Z,891.00
2023-03-02T06:01:44.123Z,898.00
2023-03-02T06:02:44.221Z,890.00
2023-03-02T06:03:44.121Z,905.00
2023-03-02T06:04:44.119Z,892.00
2023-03-02T06:05:44.145Z,897.00
2023-03-02T06:06:44.184Z,895.00
2023-03-02T06:07:44.188Z,907.00
2023-03-02T06:08:44.207Z,916.00
2023-03-02T06:09:44.215Z,915.00
2023-03-02T06:10:44.193Z,926.00
2023-03-02T06:11:44.260Z,938.00
2023-03-02T06:12:44.205Z,931.00
2023-03-02T06:13:44.236Z,925.00
2023-03-02T06:14:44.247Z,964.00
2023-03-02T06:15:44.285Z,961.00
2023-03-02T06:16:44.375Z,988.00
2023-03-02T06:17:44.300Z,965.00
2023-03-02T06:18:44.289Z,973.00
2023-03-02T06:19:44.284Z,980.00
2023-03-02T06:20:44.298Z,1012.00
2023-03-02T06:21:44.310Z,998.00
2023-03-02T06:22:44.290Z,1005.00
2023-03-02T06:23:44.322Z,1022.00
2023-03-02T06:24:44.310Z,1067.00
2023-03-02T06:25:44.297Z,1135.00
2023-03-02T06:26:47.655Z,1135.00
2023-03-02T06:27:44.299Z,1181.00
2023-03-02T06:28:53.893Z,1182.00
2023-03-02T06:29:45.294Z,1182.00
2023-03-02T06:30:44.279Z,1187.00
2023-03-02T06:31:44.402Z,1192.00
2023-03-02T06:32:44.311Z,1181.00
2023-03-02T06:33:44.250Z,1211.00
2023-03-02T06:34:44.233Z,1193.00
2023-03-02T06:35:44.341Z,1191.00
2023-03-02T06:36:44.212Z,1166.00
2023-03-02T06:37:44.565Z,1178.00
2023-03-02T06:38:44.177Z,1163.00
2023-03-02T06:39:44.158Z,1184.00
2023-03-02T06:40:44.185Z,1192.00
2023-03-02T06:41:44.146Z,1181.00
2023-03-02T06:42:44.147Z,1185.00
2023-03-02T06:43:44.131Z,1186.00
2023-03-02T06:44:44.104Z,1166.00
2023-03-02T06:45:44.149Z,1183.00
2023-03-02T06:46:44.074Z,1179.00
2023-03-02T06:47:44.065Z,1159.00
2023-03-02T06:48:44.049Z,1173.00
2023-03-02T06:49:44.021Z,1171.00
2023-03-02T06:50:44.644Z,1164.00
2023-03-02T06:51:43.986Z,1175.00
2023-03-02T06:52:43.983Z,1170.00
2023-03-02T06:53:43.954Z,1147.00
2023-03-02T06:54:43.945Z,1162.00
2023-03-02T06:55:43.922Z,1157.00
2023-03-02T06:56:43.916Z,1150.00
2023-03-02T06:57:43.898Z,1159.00
2023-03-02T06:58:43.882Z,1110.00
2023-03-02T06:59:43.861Z,1083.00
2023-03-02T07:00:43.856Z,1090.00
2023-03-02T07:01:44.840Z,1091.00
2023-03-02T07:02:44.679Z,1097.00
2023-03-02T07:03:43.856Z,1108.00
2023-03-02T07:04:43.803Z,1132.00
2023-03-02T07:05:46.082Z,1178.00
2023-03-02T07:06:43.875Z,1206.00
2023-03-02T07:07:43.874Z,1210.00
2023-03-02T07:08:43.867Z,1208.00
2023-03-02T07:09:43.861Z,1213.00
2023-03-02T07:10:43.867Z,1194.00
2023-03-02T07:12:43.862Z,1182.00
2023-03-02T07:13:43.882Z,1216.00
2023-03-02T07:14:43.886Z,1243.00
2023-03-02T07:15:43.869Z,1249.00
2023-03-02T10:56:47.749Z,1583.00
2023-03-02T10:57:47.791Z,1569.00
2023-03-02T10:58:47.928Z,1548.00
2023-03-02T10:59:47.909Z,1553.00
2023-03-02T11:00:47.937Z,1554.00
2023-03-02T11:01:48.005Z,1561.00
2023-03-02T11:02:48.044Z,1560.00
2023-03-02T11:03:48.109Z,1257.00
2023-03-02T11:04:50.222Z,889.00
2023-03-02T11:05:48.193Z,897.00
2023-03-02T11:06:48.229Z,1212.00
2023-03-02T11:07:48.262Z,1232.00
2023-03-02T11:08:48.309Z,1087.00
2023-03-02T11:09:48.294Z,1122.00
2023-03-02T11:10:48.302Z,1285.00
2023-03-02T11:11:48.444Z,1317.00
2023-03-02T11:12:48.345Z,1094.00
2023-03-02T11:13:48.383Z,1045.00
2023-03-02T11:14:48.388Z,1150.00
2023-03-02T11:15:48.475Z,1114.00
2023-03-02T11:16:48.425Z,1005.00
2023-03-02T11:17:48.478Z,1093.00
2023-03-02T11:18:48.532Z,1217.00
2023-03-02T11:19:48.577Z,1313.00
2023-03-02T11:20:48.618Z,1272.00
2023-03-02T11:21:48.672Z,1323.00
2023-03-02T11:22:48.725Z,1325.00
2023-03-02T11:23:48.775Z,1369.00
2023-03-02T11:24:48.813Z,1342.00
2023-03-02T11:25:48.847Z,1348.00
2023-03-02T11:26:48.871Z,1355.00
2023-03-02T11:27:48.914Z,1356.00
2023-03-02T11:28:48.972Z,1398.00
2023-03-02T11:29:48.997Z,1390.00
2023-03-02T11:30:49.058Z,1390.00
2023-03-02T11:31:49.168Z,1401.00
2023-03-02T11:32:49.236Z,1398.00
2023-03-02T11:33:49.239Z,1388.00
2023-03-02T11:34:50.188Z,1401.00
2023-03-02T11:35:49.309Z,1390.00
2023-03-02T11:36:49.299Z,1401.00
2023-03-02T11:37:49.336Z,1435.00
2023-03-02T11:38:49.374Z,1405.00
2023-03-02T11:39:55.550Z,1403.00
2023-03-02T11:40:50.413Z,1403.00
2023-03-02T11:41:49.411Z,1406.00
2023-03-02T11:42:49.402Z,1412.00
2023-03-02T11:43:49.380Z,1430.00
2023-03-02T11:44:50.244Z,1458.00
2023-03-02T11:45:49.363Z,1465.00
2023-03-02T11:46:49.410Z,1465.00
2023-03-02T11:47:57.257Z,1463.00
2023-03-02T11:48:50.328Z,1465.00
2023-03-02T11:49:49.308Z,1456.00
2023-03-02T11:50:49.306Z,1473.00
2023-03-02T11:51:57.788Z,1471.00
2023-03-02T11:52:50.269Z,1465.00
2023-03-02T11:53:49.296Z,1469.00
2023-03-02T11:54:49.248Z,1478.00
2023-03-02T11:55:49.232Z,1487.00
2023-03-02T11:56:49.222Z,1543.00
2023-03-02T11:57:49.223Z,1516.00
2023-03-02T11:58:49.204Z,1545.00
2023-03-02T11:59:49.187Z,1553.00
2023-03-02T12:00:49.203Z,1563.00
2023-03-02T12:01:49.433Z,1547.00
2023-03-02T12:02:49.296Z,1577.00
2023-03-02T12:03:49.306Z,1559.00
2023-03-02T12:04:49.321Z,1576.00
2023-03-02T12:05:49.357Z,1576.00
2023-03-02T12:58:14.926Z,500.00
2023-03-02T12:59:14.953Z,500.00
2023-03-02T13:00:14.995Z,500.00
2023-03-02T14:49:17.751Z,556.00
2023-03-02T14:50:17.790Z,559.00
2023-03-02T14:51:17.814Z,560.00
2023-03-02T14:52:17.859Z,564.00
2023-03-02T14:53:17.906Z,568.00
2023-03-02T14:54:17.960Z,571.00
2023-03-02T14:55:18.029Z,573.00
2023-03-02T14:56:18.094Z,565.00
2023-03-02T14:57:18.192Z,575.00
2023-03-02T14:58:18.257Z,571.00
2023-03-02T14:59:18.352Z,576.00
2023-03-02T15:00:18.420Z,582.00
2023-03-02T15:01:18.508Z,578.00
2023-03-02T15:02:25.795Z,582.00
2023-03-02T15:03:19.649Z,582.00
2023-03-02T15:04:18.572Z,582.00
2023-03-02T15:05:18.601Z,582.00
2023-03-02T15:06:18.612Z,585.00
2023-03-02T15:07:18.640Z,588.00
2023-03-02T15:08:18.664Z,589.00
2023-03-02T15:09:18.676Z,594.00
2023-03-02T15:10:18.695Z,594.00
2023-03-02T15:11:18.720Z,590.00
2023-03-02T15:12:18.726Z,591.00
2023-03-02T15:13:18.744Z,590.00
2023-03-02T15:14:18.787Z,588.00
2023-03-02T15:15:18.779Z,589.00
2023-03-02T15:16:18.886Z,594.00
2023-03-02T15:17:18.820Z,601.00
2023-03-02T15:18:18.816Z,600.00
2023-03-02T15:19:18.849Z,597.00
2023-03-02T15:20:18.849Z,602.00
2023-03-02T15:21:18.869Z,605.00
2023-03-02T15:22:18.918Z,601.00
2023-03-02T15:23:18.936Z,602.00
2023-03-02T15:24:19.021Z,596.00
2023-03-02T15:25:19.030Z,600.00
2023-03-02T15:26:19.636Z,593.00
2023-03-02T15:27:19.128Z,592.00
2023-03-02T15:28:19.161Z,589.00
2023-03-02T15:29:19.202Z,582.00
2023-03-02T15:30:19.263Z,586.00
2023-03-02T15:31:19.320Z,587.00
2023-03-02T15:32:19.356Z,584.00
2023-03-02T15:33:19.385Z,578.00
2023-03-02T15:34:19.432Z,576.00
2023-03-02T15:35:19.473Z,575.00
2023-03-02T15:36:19.525Z,561.00
2023-03-02T15:37:19.575Z,559.00
2023-03-02T15:38:19.654Z,557.00
2023-03-02T15:39:19.653Z,553.00
2023-03-02T15:40:19.686Z,547.00
2023-03-02T15:41:19.731Z,546.00
2023-03-02T15:42:19.781Z,548.00
2023-03-02T15:43:19.906Z,548.00
2023-03-02T15:44:19.895Z,536.00
2023-03-02T15:45:19.937Z,531.00
2023-03-02T15:46:19.990Z,526.00
2023-03-02T15:47:20.017Z,528.00
2023-03-02T15:48:20.145Z,525.00
2023-03-02T15:49:20.121Z,524.00
2023-03-02T15:50:20.163Z,526.00
2023-03-02T15:51:20.190Z,522.00
2023-03-02T15:52:20.253Z,499.00
2023-03-02T15:53:20.307Z,504.00
2023-03-02T15:54:20.359Z,515.00
2023-03-02T15:55:20.422Z,521.00
2023-03-02T15:56:20.451Z,524.00
2023-03-02T15:57:20.506Z,532.00
2023-03-02T15:58:20.551Z,525.00
2023-03-02T15:59:20.616Z,526.00
2023-03-02T16:00:20.647Z,527.00
2023-03-02T16:01:20.703Z,528.00
2023-03-02T16:02:20.745Z,527.00
2023-03-02T16:03:20.816Z,520.00
2023-03-02T16:04:20.840Z,521.00
2023-03-02T16:05:20.895Z,517.00
2023-03-02T16:06:20.947Z,514.00
2023-03-02T16:07:20.995Z,505.00
2023-03-02T16:08:21.058Z,507.00
2023-03-02T16:09:21.101Z,501.00
2023-03-02T16:10:21.199Z,500.00
2023-03-02T16:11:21.222Z,508.00
2023-03-02T16:12:21.285Z,514.00
2023-03-02T16:13:21.317Z,513.00
2023-03-02T16:14:21.373Z,518.00
2023-03-02T16:15:21.418Z,512.00
2023-03-02T16:16:21.548Z,513.00
2023-03-02T16:17:21.519Z,516.00
2023-03-02T16:18:21.576Z,522.00
2023-03-02T16:19:21.627Z,516.00
2023-03-02T16:20:21.686Z,521.00
2023-03-02T16:21:21.760Z,522.00
2023-03-02T16:22:21.785Z,531.00
2023-03-02T16:23:21.837Z,521.00
2023-03-02T16:24:21.908Z,522.00
2023-03-02T16:25:21.933Z,525.00
2023-03-02T16:26:22.005Z,530.00
2023-03-02T16:27:22.043Z,523.00
2023-03-02T16:28:22.100Z,528.00
2023-03-02T16:29:22.145Z,526.00
2023-03-02T16:30:23.532Z,529.00
2023-03-02T16:48:23.127Z,536.00
2023-03-02T16:49:23.194Z,525.00
2023-03-02T16:50:23.243Z,527.00
2023-03-02T16:51:23.302Z,523.00
2023-03-02T16:52:23.358Z,527.00
2023-03-02T16:53:23.411Z,516.00
2023-03-02T16:54:23.464Z,525.00
2023-03-02T16:55:23.514Z,514.00
2023-03-02T16:56:23.594Z,521.00
2023-03-02T16:57:23.637Z,516.00
2023-03-02T16:58:24.677Z,518.00
2023-03-02T16:59:23.738Z,521.00
2023-03-02T17:00:23.811Z,527.00
2023-03-02T17:01:23.872Z,516.00
2023-03-02T17:02:23.930Z,512.00
2023-03-02T17:03:23.974Z,510.00
2023-03-02T17:04:24.019Z,510.00
2023-03-02T17:05:24.052Z,507.00
2023-03-02T17:06:24.124Z,512.00
2023-03-02T17:07:24.163Z,510.00
2023-03-02T17:08:24.214Z,513.00
2023-03-02T17:09:24.280Z,502.00
2023-03-02T17:10:24.341Z,504.00
2023-03-02T17:11:24.399Z,514.00
2023-03-02T17:12:24.438Z,518.00
2023-03-02T17:13:24.481Z,517.00
2023-03-02T17:14:24.553Z,511.00
2023-03-02T17:15:24.590Z,508.00
2023-03-02T17:16:24.634Z,507.00
2023-03-02T17:17:24.688Z,511.00
2023-03-02T17:18:24.730Z,505.00
2023-03-02T18:19:27.736Z,500.00
2023-03-02T18:20:27.805Z,505.00
2023-03-02T18:21:27.851Z,500.00
2023-03-02T18:22:27.904Z,509.00
2023-03-02T18:23:27.968Z,503.00
2023-03-02T18:24:28.000Z,509.00
2023-03-02T18:25:28.061Z,501.00
2023-03-02T18:26:28.111Z,502.00
2023-03-02T18:27:28.200Z,513.00
2023-03-02T18:28:28.224Z,512.00
2023-03-02T18:29:28.285Z,511.00
2023-03-02T18:30:28.325Z,504.00
2023-03-02T18:31:28.447Z,510.00
2023-03-02T18:32:28.468Z,503.00
2023-03-02T18:33:28.500Z,506.00
2023-03-02T18:34:28.550Z,505.00
2023-03-02T18:42:28.983Z,510.00
2023-03-02T18:43:29.054Z,504.00
2023-03-02T18:44:29.092Z,505.00
2023-03-02T18:45:29.148Z,504.00
2023-03-02T18:46:29.232Z,501.00
2023-03-02T18:47:29.262Z,515.00
2023-03-02T18:48:29.317Z,500.00
2023-03-02T18:49:29.381Z,501.00
2023-03-02T18:50:29.447Z,500.00
2023-03-02T18:51:29.522Z,510.00
2023-03-02T18:52:29.566Z,501.00
2023-03-02T18:53:29.625Z,502.00
2023-03-02T18:54:29.659Z,509.00
2023-03-02T18:55:29.745Z,511.00
2023-03-02T18:56:29.786Z,500.00
2023-03-02T18:57:29.837Z,504.00
2023-03-02T18:58:32.193Z,512.00
2023-03-02T18:59:29.948Z,508.00
2023-03-02T19:00:30.049Z,506.00
2023-03-02T19:01:30.098Z,503.00
2023-03-02T19:02:30.138Z,514.00
2023-03-02T19:03:30.170Z,504.00
2023-03-02T19:04:30.233Z,505.00
2023-03-02T19:05:30.311Z,507.00
2023-03-02T19:06:30.344Z,503.00
2023-03-02T19:07:30.418Z,508.00
2023-03-02T19:08:30.500Z,506.00
2023-03-02T19:09:30.531Z,507.00
2023-03-02T19:10:30.609Z,512.00
2023-03-02T19:11:30.648Z,505.00
2023-03-02T19:12:30.717Z,510.00
2023-03-02T19:13:30.778Z,510.00
2023-03-02T19:14:30.845Z,511.00
2023-03-02T19:15:30.912Z,500.00
2023-03-02T19:16:31.010Z,504.00
2023-03-02T19:17:31.040Z,507.00
2023-03-02T19:18:31.110Z,509.00
2023-03-02T19:19:31.184Z,505.00
2023-03-02T19:20:31.240Z,509.00
2023-03-02T19:21:31.309Z,510.00
2023-03-02T19:22:31.370Z,511.00
2023-03-02T19:23:31.440Z,513.00
2023-03-02T19:24:31.496Z,505.00
2023-03-02T19:25:31.558Z,503.00
2023-03-02T19:26:31.629Z,502.00
2023-03-02T19:27:31.715Z,504.00
2023-03-02T19:28:31.766Z,505.00
2023-03-02T19:29:31.820Z,510.00
2023-03-02T19:30:31.906Z,514.00
2023-03-02T19:31:31.998Z,509.00
2023-03-02T19:32:32.057Z,516.00
2023-03-02T19:33:32.090Z,507.00
2023-03-02T19:34:32.172Z,502.00
2023-03-02T19:35:32.256Z,500.00
2023-03-02T19:36:32.289Z,516.00
2023-03-02T19:37:32.352Z,510.00
2023-03-02T19:38:32.410Z,508.00
2023-03-02T19:39:32.470Z,506.00
2023-03-02T19:40:32.541Z,512.00
2023-03-02T19:41:32.616Z,509.00
2023-03-02T19:42:32.659Z,501.00
2023-03-02T19:43:32.724Z,502.00
2023-03-02T19:44:32.782Z,508.00
2023-03-02T19:45:32.911Z,506.00
2023-03-02T19:46:32.922Z,500.00
2023-03-02T19:47:32.984Z,512.00
2023-03-02T20:55:37.717Z,505.00
2023-03-02T20:56:37.784Z,507.00
2023-03-02T20:57:38.780Z,508.00
2023-03-02T20:59:38.138Z,513.00
2023-03-02T23:17:47.713Z,516.00
2023-03-02T23:18:47.790Z,503.00
2023-03-02T23:19:47.858Z,506.00
2023-03-02T23:20:47.992Z,512.00
2023-03-02T23:21:48.010Z,511.00
2023-03-02T23:22:48.067Z,508.00
2023-03-02T23:23:48.135Z,504.00
2023-03-02T23:24:48.206Z,500.00
2023-03-02T23:25:48.282Z,512.00
2023-03-02T23:26:48.358Z,504.00
2023-03-02T23:28:48.507Z,516.00
